Time;durP1;ratioP1;P1;durP2;ratioP2;P2;SDS_P1;SDS_P2;PMS_P1;PMS_P2;Temp;Humidity;BMP_temperature;BMP_pressure;BME280_temperature;BME280_humidity;BME280_pressure;Samples;Min_cycle;Max_cycle;Signal;HPM_P1;HPM_P2
2023/03/01 00:01:09;;;;;;;11.13;7.55;;;-1.90;99.90;;;;;;5036886;28;20018;-57
2023/03/01 00:03:35;;;;;;;13.98;7.85;;;-2.00;99.90;;;;;;5038140;28;20028;-56
2023/03/01 00:06:02;;;;;;;11.13;7.93;;;-2.00;99.90;;;;;;5037847;28;20415;-57
2023/03/01 00:08:29;;;;;;;12.40;7.95;;;-2.00;99.90;;;;;;5037720;28;20823;-57
2023/03/01 00:11:07;;;;;;;10.07;7.45;;;-2.00;99.90;;;;;;5037818;28;20398;-57
2023/03/01 00:13:34;;;;;;;13.60;9.05;;;-2.00;99.90;;;;;;5038653;28;20033;-55
2023/03/01 00:16:06;;;;;;;13.60;8.82;;;-2.00;99.90;;;;;;5037714;28;20022;-55
2023/03/01 00:18:32;;;;;;;13.18;8.30;;;-2.00;99.90;;;;;;5038311;28;20041;-55
2023/03/01 00:20:58;;;;;;;14.60;8.45;;;-2.10;99.90;;;;;;5036386;28;20550;-56
2023/03/01 00:23:24;;;;;;;11.65;7.68;;;-2.10;99.90;;;;;;5039730;28;20025;-53
2023/03/01 00:25:50;;;;;;;13.35;8.57;;;-2.10;99.90;;;;;;5039010;28;20574;-54
2023/03/01 00:28:16;;;;;;;14.10;8.32;;;-2.10;99.90;;;;;;5038089;28;20037;-55
2023/03/01 00:30:42;;;;;;;12.25;8.32;;;-2.10;99.90;;;;;;5037739;28;20340;-55
2023/03/01 00:33:07;;;;;;;12.25;8.35;;;-2.10;99.90;;;;;;5039240;28;20032;-54
2023/03/01 00:35:33;;;;;;;12.93;7.70;;;-2.10;99.90;;;;;;5038167;28;20034;-55
2023/03/01 00:38:00;;;;;;;11.35;8.38;;;-2.10;99.90;;;;;;5037290;28;20026;-57
2023/03/01 00:40:27;;;;;;;11.65;7.55;;;-2.10;99.90;;;;;;5037592;28;20411;-57
2023/03/01 00:42:52;;;;;;;13.27;7.57;;;-2.10;99.90;;;;;;5037268;28;20041;-52
2023/03/01 00:45:18;;;;;;;11.90;8.20;;;-2.10;99.90;;;;;;5037528;28;20083;-51
2023/03/01 00:47:44;;;;;;;12.80;8.60;;;-2.10;99.90;;;;;;5037076;28;20373;-56
2023/03/01 00:50:10;;;;;;;13.50;7.88;;;-2.10;99.90;;;;;;5038120;28;20063;-54
2023/03/01 00:52:36;;;;;;;9.93;7.32;;;-2.20;99.90;;;;;;5038126;28;20037;-57
2023/03/01 00:55:03;;;;;;;11.82;7.55;;;-2.20;99.90;;;;;;5038804;28;20086;-52
2023/03/01 00:57:29;;;;;;;10.85;7.20;;;-2.20;99.90;;;;;;5037018;28;20032;-54
2023/03/01 00:59:54;;;;;;;9.18;7.15;;;-2.20;99.90;;;;;;5037626;28;20060;-56
2023/03/01 01:02:20;;;;;;;9.70;6.93;;;-2.20;99.90;;;;;;5037006;28;20395;-56
2023/03/01 01:04:46;;;;;;;11.73;7.28;;;-2.20;99.90;;;;;;5038894;28;20034;-55
2023/03/01 01:07:12;;;;;;;11.60;7.07;;;-2.20;99.90;;;;;;5035746;28;20127;-56
2023/03/01 01:09:37;;;;;;;8.82;6.70;;;-2.30;99.90;;;;;;5037078;28;20033;-55
2023/03/01 01:12:03;;;;;;;13.10;7.65;;;-2.20;99.90;;;;;;5037927;28;20025;-56
2023/03/01 01:14:29;;;;;;;12.25;6.78;;;-2.30;99.90;;;;;;5038480;28;20072;-53
2023/03/01 01:16:54;;;;;;;11.63;7.45;;;-2.30;99.90;;;;;;5038102;28;20029;-56
2023/03/01 01:19:20;;;;;;;10.35;7.80;;;-2.30;99.90;;;;;;5036498;28;20027;-54
2023/03/01 01:21:47;;;;;;;12.75;7.47;;;-2.30;99.90;;;;;;5037174;28;20037;-55
2023/03/01 01:24:14;;;;;;;10.88;7.88;;;-2.30;99.90;;;;;;5037654;28;20021;-57
2023/03/01 01:26:40;;;;;;;15.80;7.10;;;-2.40;99.90;;;;;;5038104;28;20075;-55
2023/03/01 01:29:06;;;;;;;12.10;7.57;;;-2.40;99.90;;;;;;5037040;28;20025;-55
2023/03/01 01:31:34;;;;;;;11.65;7.70;;;-2.40;99.90;;;;;;5037438;28;20556;-56
2023/03/01 01:34:01;;;;;;;9.27;6.75;;;-2.40;99.90;;;;;;5037469;28;20033;-57
2023/03/01 01:36:28;;;;;;;13.07;7.50;;;-2.40;99.90;;;;;;5036483;28;20487;-52
2023/03/01 01:38:53;;;;;;;8.63;6.90;;;-2.40;99.90;;;;;;5036007;28;20032;-55
2023/03/01 01:41:19;;;;;;;10.20;6.28;;;-2.40;99.90;;;;;;5037644;28;20036;-55
2023/03/01 01:43:48;;;;;;;10.40;6.38;;;-2.40;99.90;;;;;;5037898;28;20037;-54
2023/03/01 01:46:32;;;;;;;9.98;6.93;;;-2.40;99.90;;;;;;5037017;28;20060;-52
2023/03/01 01:49:03;;;;;;;9.23;6.75;;;-2.50;99.90;;;;;;5040508;28;20021;-56
2023/03/01 01:51:38;;;;;;;11.48;7.70;;;-2.50;99.90;;;;;;5041433;28;20021;-53
2023/03/01 01:54:11;;;;;;;9.30;6.88;;;-2.50;99.90;;;;;;5038562;28;20101;-56
2023/03/01 01:56:38;;;;;;;9.70;6.85;;;-2.50;99.90;;;;;;5042678;28;20025;-55
2023/03/01 01:59:04;;;;;;;9.65;6.97;;;-2.50;99.90;;;;;;5038042;28;20030;-51
2023/03/01 02:01:30;;;;;;;9.82;6.93;;;-2.50;99.90;;;;;;5039597;28;20256;-53
2023/03/01 02:03:56;;;;;;;11.35;7.15;;;-2.50;99.90;;;;;;5039642;28;20108;-55
2023/03/01 02:06:39;;;;;;;10.65;6.90;;;-2.50;99.90;;;;;;5038359;28;20115;-54
2023/03/01 02:09:11;;;;;;;12.98;7.22;;;-2.50;99.90;;;;;;5041357;28;20028;-56
2023/03/01 02:11:37;;;;;;;12.10;6.85;;;-2.50;99.90;;;;;;5041045;28;20040;-54
2023/03/01 02:14:04;;;;;;;10.55;7.05;;;-2.50;99.90;;;;;;5040449;28;20085;-54
2023/03/01 02:16:30;;;;;;;8.77;7.00;;;-2.50;99.90;;;;;;5040769;28;20037;-56
2023/03/01 02:18:57;;;;;;;9.82;6.78;;;-2.50;99.90;;;;;;5040259;28;20024;-55
2023/03/01 02:21:54;;;;;;;9.77;7.07;;;-2.50;99.90;;;;;;5040278;28;20107;-54
2023/03/01 02:24:51;;;;;;;11.68;7.10;;;-2.50;99.90;;;;;;5032454;28;20033;-56
2023/03/01 02:27:21;;;;;;;11.57;7.30;;;-2.50;99.90;;;;;;5040421;28;20091;-55
2023/03/01 02:29:47;;;;;;;8.68;6.07;;;-2.60;99.90;;;;;;5038331;28;20112;-57
2023/03/01 02:32:15;;;;;;;9.90;6.93;;;-2.60;99.90;;;;;;5040315;28;20171;-57
2023/03/01 02:34:40;;;;;;;12.52;7.57;;;-2.60;99.90;;;;;;5039264;28;20562;-56
2023/03/01 02:37:14;;;;;;;10.10;7.45;;;-2.60;99.90;;;;;;5038143;28;20037;-55
2023/03/01 02:39:44;;;;;;;10.20;6.57;;;-2.60;99.90;;;;;;5039186;28;20120;-56
2023/03/01 02:42:14;;;;;;;13.00;6.90;;;-2.60;99.90;;;;;;5041099;28;20049;-55
2023/03/01 02:44:40;;;;;;;11.35;6.70;;;-2.70;99.90;;;;;;5039222;28;20029;-56
2023/03/01 02:47:05;;;;;;;11.57;7.35;;;-2.70;99.90;;;;;;5056033;28;20029;-54
2023/03/01 02:49:34;;;;;;;11.55;7.57;;;-2.70;99.90;;;;;;5037838;28;20141;-55
2023/03/01 02:52:43;;;;;;;10.80;7.05;;;-2.70;99.90;;;;;;5039844;28;20021;-55
2023/03/01 02:55:14;;;;;;;9.10;6.32;;;-2.70;99.90;;;;;;5038616;28;20063;-57
2023/03/01 02:57:43;;;;;;;7.65;6.47;;;-2.80;99.90;;;;;;5040667;28;20494;-56
2023/03/01 03:00:19;;;;;;;7.63;6.43;;;-2.80;99.90;;;;;;5039985;28;20033;-56
2023/03/01 03:02:46;;;;;;;8.63;6.68;;;-2.80;99.90;;;;;;5038283;28;20026;-53
2023/03/01 03:05:14;;;;;;;8.98;7.20;;;-2.80;99.90;;;;;;5038567;28;20033;-57
2023/03/01 03:07:43;;;;;;;11.15;7.03;;;-2.80;99.90;;;;;;5038397;28;20547;-55
2023/03/01 03:10:19;;;;;;;12.02;7.43;;;-2.80;99.90;;;;;;5039272;28;20553;-53
2023/03/01 03:12:48;;;;;;;;;;;-2.80;99.90;;;;;;5040445;28;20083;-57
2023/03/01 03:15:14;;;;;;;9.95;6.70;;;-2.80;99.90;;;;;;5040440;28;20290;-56
2023/03/01 03:17:42;;;;;;;8.50;6.68;;;-2.80;99.90;;;;;;5038993;28;20047;-56
2023/03/01 03:20:11;;;;;;;10.63;6.47;;;-2.80;99.90;;;;;;5038583;28;20375;-56
2023/03/01 03:22:41;;;;;;;11.85;7.43;;;-2.80;99.90;;;;;;5039798;28;20029;-56
2023/03/01 03:25:10;;;;;;;7.25;6.00;;;-2.80;99.90;;;;;;5039504;28;20033;-54
2023/03/01 03:27:40;;;;;;;11.60;7.22;;;-2.70;99.90;;;;;;5038773;28;20028;-51
2023/03/01 03:30:08;;;;;;;7.80;6.38;;;-2.70;99.90;;;;;;5039080;28;20029;-52
2023/03/01 03:32:37;;;;;;;11.98;6.72;;;-2.70;99.90;;;;;;5037689;28;20025;-55
2023/03/01 03:35:09;;;;;;;13.15;6.13;;;-2.70;99.90;;;;;;5037538;28;20037;-57
2023/03/01 03:40:24;;;;;;;11.98;7.18;;;-2.60;99.90;;;;;;5039556;28;20048;-56
2023/03/01 03:42:50;;;;;;;10.07;6.65;;;-2.50;99.90;;;;;;5039112;28;20036;-55
2023/03/01 03:45:16;;;;;;;9.30;6.45;;;-2.50;99.90;;;;;;5037959;28;20026;-54
2023/03/01 03:47:42;;;;;;;8.40;6.40;;;-2.40;99.90;;;;;;5039431;28;20399;-54
2023/03/01 03:50:10;;;;;;;9.18;6.13;;;-2.40;99.90;;;;;;5039246;28;20030;-55
2023/03/01 03:52:35;;;;;;;9.40;5.43;;;-2.40;99.90;;;;;;5038594;28;20051;-57
2023/03/01 03:55:01;;;;;;;11.77;6.82;;;-2.40;99.90;;;;;;5039070;28;20108;-57
2023/03/01 03:57:26;;;;;;;7.43;6.13;;;-2.40;99.90;;;;;;5038365;28;20112;-56
2023/03/01 03:59:52;;;;;;;11.55;7.40;;;-2.40;99.90;;;;;;5037971;28;20036;-53
2023/03/01 04:02:21;;;;;;;8.98;6.07;;;-2.40;99.90;;;;;;5037974;28;20057;-52
2023/03/01 04:04:49;;;;;;;9.65;5.75;;;-2.40;99.90;;;;;;5039313;28;20032;-56
2023/03/01 04:07:15;;;;;;;8.95;5.80;;;-2.40;99.90;;;;;;5038060;28;20081;-54
2023/03/01 04:09:42;;;;;;;8.20;6.50;;;-2.30;99.90;;;;;;5038573;28;20083;-53
2023/03/01 04:12:08;;;;;;;8.88;6.38;;;-2.30;99.90;;;;;;5038647;28;20033;-54
2023/03/01 04:14:34;;;;;;;8.98;6.00;;;-2.40;99.90;;;;;;5039705;28;20028;-56
2023/03/01 04:16:59;;;;;;;8.77;6.30;;;-2.40;99.90;;;;;;5038553;28;20064;-56
2023/03/01 04:19:26;;;;;;;9.63;6.18;;;-2.30;99.90;;;;;;5037085;28;20044;-52
2023/03/01 04:21:52;;;;;;;8.93;6.00;;;-2.30;99.90;;;;;;5038126;28;20057;-56
2023/03/01 04:24:18;;;;;;;8.40;5.95;;;-2.30;99.90;;;;;;5039358;28;20064;-56
2023/03/01 04:26:43;;;;;;;8.77;5.88;;;-2.30;99.90;;;;;;5039264;28;20029;-57
2023/03/01 04:29:09;;;;;;;12.57;6.75;;;-2.30;99.90;;;;;;5037203;28;20036;-53
2023/03/01 04:31:34;;;;;;;9.73;6.70;;;-2.20;99.90;;;;;;5037377;28;20033;-57
2023/03/01 04:34:00;;;;;;;9.40;5.97;;;-2.20;99.90;;;;;;5038103;28;20025;-56
2023/03/01 04:36:27;;;;;;;9.27;6.72;;;-2.20;99.90;;;;;;5035982;28;20398;-57
2023/03/01 04:38:53;;;;;;;7.88;6.32;;;-2.20;99.90;;;;;;5036025;28;20403;-56
2023/03/01 04:41:21;;;;;;;8.93;6.47;;;-2.10;99.90;;;;;;5038170;28;20116;-57
2023/03/01 04:43:48;;;;;;;7.95;5.70;;;-2.10;99.90;;;;;;5037351;28;20464;-57
2023/03/01 04:46:17;;;;;;;8.93;5.93;;;-2.10;99.90;;;;;;5036616;28;20032;-54
2023/03/01 04:48:44;;;;;;;8.93;6.03;;;-2.10;99.90;;;;;;5035708;28;20076;-55
2023/03/01 04:51:13;;;;;;;9.65;7.05;;;-2.00;99.90;;;;;;5037224;28;20029;-54
2023/03/01 04:53:39;;;;;;;8.13;6.28;;;-2.00;99.90;;;;;;5037338;28;20021;-55
2023/03/01 04:56:06;;;;;;;10.10;6.90;;;-2.00;99.90;;;;;;5036399;28;20082;-57
2023/03/01 04:58:32;;;;;;;9.88;7.00;;;-1.90;99.90;;;;;;5037798;28;20026;-55
2023/03/01 05:00:57;;;;;;;8.68;5.90;;;-1.90;99.90;;;;;;5037259;28;20018;-56
2023/03/01 05:03:23;;;;;;;8.90;5.75;;;-1.90;99.90;;;;;;5038093;28;20541;-55
2023/03/01 05:05:51;;;;;;;10.25;5.80;;;-1.80;99.90;;;;;;5038379;28;20049;-57
2023/03/01 05:08:17;;;;;;;10.10;6.07;;;-1.80;99.90;;;;;;5035673;28;20670;-56
2023/03/01 05:10:51;;;;;;;10.63;6.97;;;-1.80;99.90;;;;;;5036828;28;20116;-55
2023/03/01 05:13:20;;;;;;;8.93;5.65;;;-1.80;99.90;;;;;;5038447;28;20630;-55
2023/03/01 05:15:57;;;;;;;6.72;5.82;;;-1.80;99.90;;;;;;5036058;28;20515;-55
2023/03/01 05:18:27;;;;;;;9.63;6.10;;;-1.70;99.90;;;;;;5036621;28;20052;-57
2023/03/01 05:20:56;;;;;;;8.57;6.25;;;-1.70;99.90;;;;;;5035317;28;20025;-53
2023/03/01 05:23:22;;;;;;;7.80;5.57;;;-1.70;99.90;;;;;;5036104;28;20036;-57
2023/03/01 05:25:49;;;;;;;8.40;5.68;;;-1.70;99.90;;;;;;5037770;28;20022;-56
2023/03/01 05:28:15;;;;;;;10.13;6.82;;;-1.60;99.90;;;;;;5036862;28;20502;-57
2023/03/01 05:30:41;;;;;;;10.55;6.65;;;-1.60;99.90;;;;;;5037527;28;20116;-52
2023/03/01 05:33:12;;;;;;;9.85;6.50;;;-1.60;99.90;;;;;;5036933;28;20112;-57
2023/03/01 05:35:40;;;;;;;9.40;6.18;;;-1.60;99.90;;;;;;5036705;28;20088;-54
2023/03/01 05:38:06;;;;;;;10.93;6.68;;;-1.60;99.90;;;;;;5036294;28;20033;-57
2023/03/01 05:40:33;;;;;;;7.40;6.18;;;-1.50;99.90;;;;;;5037931;28;20064;-56
2023/03/01 05:42:59;;;;;;;8.63;5.85;;;-1.50;99.90;;;;;;5037842;28;20031;-55
2023/03/01 05:45:26;;;;;;;10.13;5.93;;;-1.50;99.90;;;;;;5036331;28;20888;-56
2023/03/01 05:47:52;;;;;;;8.43;6.05;;;-1.50;99.90;;;;;;5036892;28;20082;-56
2023/03/01 05:50:25;;;;;;;8.88;6.68;;;-1.50;99.90;;;;;;5036742;28;20107;-56
2023/03/01 05:52:56;;;;;;;10.63;7.55;;;-1.50;99.90;;;;;;5037472;28;20171;-56
2023/03/01 05:55:22;;;;;;;7.90;6.63;;;-1.50;99.90;;;;;;5037493;28;20484;-57
2023/03/01 05:57:48;;;;;;;9.70;6.88;;;-1.50;99.90;;;;;;5037200;28;20040;-56
2023/03/01 06:00:15;;;;;;;14.18;8.10;;;-1.50;99.90;;;;;;5037294;28;20026;-56
2023/03/01 06:02:41;;;;;;;10.35;7.43;;;-1.60;99.90;;;;;;5035889;28;20025;-56
2023/03/01 06:05:09;;;;;;;11.55;7.38;;;-1.60;99.90;;;;;;5052384;28;20030;-57
2023/03/01 06:07:34;;;;;;;10.20;6.93;;;-1.50;99.90;;;;;;5037059;28;20458;-57
2023/03/01 06:10:01;;;;;;;10.73;7.03;;;-1.60;99.90;;;;;;5036642;28;20104;-57
2023/03/01 06:12:30;;;;;;;11.15;7.57;;;-1.60;99.90;;;;;;5035089;28;20025;-57
2023/03/01 06:14:55;;;;;;;10.63;8.00;;;-1.60;99.90;;;;;;5033297;28;20494;-55
2023/03/01 06:17:21;;;;;;;12.55;8.02;;;-1.60;99.90;;;;;;5037206;28;20078;-54
2023/03/01 06:19:46;;;;;;;12.32;8.05;;;-1.60;99.90;;;;;;5034195;28;20487;-55
2023/03/01 06:22:13;;;;;;;10.13;7.60;;;-1.60;99.90;;;;;;5035304;28;20037;-56
2023/03/01 06:24:38;;;;;;;10.90;7.45;;;-1.60;99.90;;;;;;5035842;28;20102;-56
2023/03/01 06:27:04;;;;;;;14.27;7.50;;;-1.60;99.90;;;;;;5036447;28;20034;-57
2023/03/01 06:29:29;;;;;;;10.10;7.22;;;-1.60;99.90;;;;;;5039360;28;20284;-57
2023/03/01 06:31:55;;;;;;;12.38;8.07;;;-1.60;99.90;;;;;;5040430;28;20506;-57
2023/03/01 06:34:21;;;;;;;10.85;7.95;;;-1.60;99.90;;;;;;5039983;28;20041;-55
2023/03/01 06:36:47;;;;;;;11.07;7.30;;;-1.60;99.90;;;;;;5039494;28;20521;-56
2023/03/01 06:39:12;;;;;;;11.65;8.05;;;-1.60;99.90;;;;;;5039856;28;20040;-57
2023/03/01 06:41:38;;;;;;;9.57;7.78;;;-1.60;99.90;;;;;;5040090;28;20517;-56
2023/03/01 06:44:03;;;;;;;11.50;8.27;;;-1.50;99.90;;;;;;5040797;28;20428;-56
2023/03/01 06:46:29;;;;;;;11.60;7.97;;;-1.50;99.90;;;;;;5039290;28;20558;-55
2023/03/01 06:48:55;;;;;;;11.90;8.07;;;-1.40;99.90;;;;;;5040367;28;20028;-57
2023/03/01 06:51:20;;;;;;;9.70;7.40;;;-1.40;99.90;;;;;;5039130;28;20109;-57
2023/03/01 06:53:46;;;;;;;10.27;7.35;;;-1.40;99.90;;;;;;5040563;28;20017;-55
2023/03/01 06:56:12;;;;;;;11.77;7.93;;;-1.40;99.90;;;;;;5039607;28;20040;-55
2023/03/01 06:58:37;;;;;;;11.38;7.78;;;-1.30;99.90;;;;;;5039922;28;20018;-57
2023/03/01 07:01:09;;;;;;;13.52;9.23;;;-1.30;99.90;;;;;;5040375;28;20219;-58
2023/03/01 07:03:35;;;;;;;16.00;9.75;;;-1.20;99.90;;;;;;5039574;28;20056;-58
2023/03/01 07:06:00;;;;;;;21.15;14.88;;;-1.20;99.90;;;;;;5037750;28;20018;-56
2023/03/01 07:08:26;;;;;;;17.15;13.25;;;-1.10;99.90;;;;;;5039943;28;20025;-59
2023/03/01 07:10:56;;;;;;;16.40;11.73;;;-1.10;99.90;;;;;;5039309;28;20471;-58
2023/03/01 07:13:22;;;;;;;19.77;13.93;;;-1.00;99.90;;;;;;5040763;28;20022;-57
2023/03/01 07:15:47;;;;;;;29.27;25.00;;;-1.00;99.90;;;;;;5035392;28;20517;-56
2023/03/01 07:18:13;;;;;;;22.75;17.88;;;-0.90;99.90;;;;;;5039842;28;20402;-52
2023/03/01 07:20:38;;;;;;;17.90;11.98;;;-0.90;99.90;;;;;;5039702;28;20079;-57
2023/03/01 07:23:05;;;;;;;14.85;10.95;;;-0.80;99.90;;;;;;5037521;28;20117;-57
2023/03/01 07:25:31;;;;;;;13.85;10.07;;;-0.70;99.90;;;;;;5039063;28;20128;-55
2023/03/01 07:27:57;;;;;;;14.48;9.70;;;-0.70;99.90;;;;;;5039146;28;20051;-57
2023/03/01 07:30:25;;;;;;;16.35;10.43;;;-0.60;99.90;;;;;;5039597;28;20021;-56
2023/03/01 07:32:51;;;;;;;15.50;11.43;;;-0.60;99.90;;;;;;5038480;28;20021;-57
2023/03/01 07:35:17;;;;;;;14.93;10.68;;;-0.50;99.90;;;;;;5039572;28;20037;-56
2023/03/01 07:37:43;;;;;;;17.35;11.20;;;-0.30;99.90;;;;;;5038421;28;20307;-54
2023/03/01 07:40:11;;;;;;;17.35;11.80;;;-0.20;99.90;;;;;;5038892;28;20100;-57
2023/03/01 07:42:39;;;;;;;16.67;11.35;;;-0.10;99.90;;;;;;5039140;28;20291;-57
2023/03/01 07:45:06;;;;;;;15.57;10.98;;;0.00;99.90;;;;;;5038715;28;20511;-57
2023/03/01 07:47:32;;;;;;;20.52;12.55;;;0.10;99.90;;;;;;5038259;28;20079;-60
2023/03/01 07:49:57;;;;;;;16.40;12.23;;;0.10;99.90;;;;;;5039023;28;20061;-57
2023/03/01 07:52:23;;;;;;;15.68;11.05;;;0.10;99.90;;;;;;5036138;28;20026;-57
2023/03/01 07:54:48;;;;;;;19.95;11.75;;;0.20;99.90;;;;;;5037902;28;20021;-58
2023/03/01 07:57:14;;;;;;;19.90;12.02;;;0.30;99.90;;;;;;5038295;28;20026;-57
2023/03/01 07:59:39;;;;;;;14.15;11.95;;;0.40;99.90;;;;;;5037603;28;20112;-57
2023/03/01 08:02:06;;;;;;;16.08;11.73;;;0.40;99.90;;;;;;5037470;28;20383;-57
2023/03/01 08:04:32;;;;;;;18.42;12.68;;;0.50;99.90;;;;;;5038705;28;20036;-57
2023/03/01 08:06:58;;;;;;;17.55;12.15;;;0.50;99.90;;;;;;5038237;28;20036;-56
2023/03/01 08:09:24;;;;;;;17.05;11.52;;;0.60;99.90;;;;;;5038304;28;20017;-58
2023/03/01 08:11:50;;;;;;;18.60;12.73;;;0.70;99.90;;;;;;5038581;28;20070;-57
2023/03/01 08:14:15;;;;;;;18.88;12.13;;;0.70;99.90;;;;;;5038593;28;20106;-55
2023/03/01 08:16:41;;;;;;;16.17;11.30;;;0.70;99.90;;;;;;5039023;28;20029;-58
2023/03/01 08:19:08;;;;;;;17.10;12.18;;;0.80;99.90;;;;;;5038047;28;20034;-58
2023/03/01 08:21:34;;;;;;;19.27;11.68;;;0.80;99.90;;;;;;5038570;28;20290;-58
2023/03/01 08:24:01;;;;;;;21.55;11.70;;;0.80;99.90;;;;;;5039812;28;20103;-58
2023/03/01 08:26:27;;;;;;;16.90;12.23;;;0.90;99.90;;;;;;5037741;28;20429;-56
2023/03/01 08:28:52;;;;;;;15.02;10.85;;;1.10;99.90;;;;;;5035350;28;20029;-58
2023/03/01 08:31:25;;;;;;;20.27;12.73;;;1.20;99.90;;;;;;5037376;28;20060;-58
2023/03/01 08:33:57;;;;;;;17.08;12.70;;;1.30;99.90;;;;;;5037344;28;20047;-58
2023/03/01 08:36:24;;;;;;;17.63;12.38;;;1.40;99.90;;;;;;5037618;28;20043;-58
2023/03/01 08:38:50;;;;;;;17.30;11.50;;;1.50;99.90;;;;;;5036800;28;20023;-58
2023/03/01 08:41:16;;;;;;;18.35;13.63;;;1.60;99.90;;;;;;5038494;28;20025;-58
2023/03/01 08:43:41;;;;;;;17.33;13.02;;;1.70;99.90;;;;;;5036257;28;20021;-58
2023/03/01 08:46:07;;;;;;;19.92;12.07;;;1.80;99.90;;;;;;5037937;28;20037;-60
2023/03/01 08:48:33;;;;;;;19.90;11.70;;;2.00;99.90;;;;;;5035774;28;20040;-59
2023/03/01 08:51:12;;;;;;;19.00;12.82;;;2.10;99.90;;;;;;5036632;28;20017;-59
2023/03/01 08:53:38;;;;;;;17.23;13.30;;;2.10;99.90;;;;;;5036354;28;20060;-59
2023/03/01 08:56:04;;;;;;;17.45;12.20;;;2.20;99.90;;;;;;5038375;28;20025;-57
2023/03/01 08:58:30;;;;;;;18.23;12.63;;;2.30;99.90;;;;;;5037271;28;20028;-58
2023/03/01 09:00:56;;;;;;;16.13;11.60;;;2.40;99.90;;;;;;5036715;28;20025;-58
2023/03/01 09:03:22;;;;;;;19.38;12.23;;;2.50;99.90;;;;;;5037055;28;20035;-58
2023/03/01 09:05:50;;;;;;;18.83;12.38;;;2.60;99.90;;;;;;5036646;28;20025;-58
2023/03/01 09:08:19;;;;;;;16.92;10.52;;;2.60;99.90;;;;;;5038203;28;20023;-59
2023/03/01 09:10:44;;;;;;;17.42;10.93;;;2.70;99.90;;;;;;5037549;28;21263;-58
2023/03/01 09:13:10;;;;;;;14.68;11.80;;;2.80;99.90;;;;;;5038263;28;20479;-58
2023/03/01 09:15:39;;;;;;;16.42;12.35;;;2.70;99.90;;;;;;5037590;28;20036;-58
2023/03/01 09:18:05;;;;;;;19.83;11.82;;;2.70;99.90;;;;;;5037642;28;20087;-58
2023/03/01 09:20:31;;;;;;;20.90;11.48;;;2.70;99.90;;;;;;5037941;28;20029;-58
2023/03/01 09:22:57;;;;;;;17.60;10.55;;;2.70;99.90;;;;;;5037694;28;20021;-56
2023/03/01 09:25:23;;;;;;;17.50;11.85;;;2.70;99.90;;;;;;5036708;28;20373;-57
2023/03/01 09:27:52;;;;;;;17.67;11.55;;;2.60;99.90;;;;;;5036055;28;20036;-57
2023/03/01 09:30:18;;;;;;;18.98;11.68;;;2.60;99.90;;;;;;5036964;28;20033;-58
2023/03/01 09:32:44;;;;;;;17.58;12.25;;;2.60;99.90;;;;;;5038083;28;20442;-58
2023/03/01 09:35:11;;;;;;;17.05;12.63;;;2.60;99.90;;;;;;5037586;28;20067;-57
2023/03/01 09:37:37;;;;;;;16.83;11.73;;;2.60;99.90;;;;;;5035577;28;20037;-58
2023/03/01 09:40:06;;;;;;;20.38;11.40;;;2.60;99.90;;;;;;5036688;28;20030;-59
2023/03/01 09:42:34;;;;;;;17.05;10.80;;;2.60;99.90;;;;;;5035459;28;20033;-59
2023/03/01 09:45:14;;;;;;;16.42;10.98;;;2.70;99.90;;;;;;5036905;28;20304;-59
2023/03/01 09:47:41;;;;;;;18.92;10.85;;;2.80;99.90;;;;;;5038703;28;20129;-59
2023/03/01 09:50:16;;;;;;;20.42;10.60;;;3.00;99.90;;;;;;5036927;28;20096;-57
2023/03/01 09:52:54;;;;;;;13.07;8.65;;;3.10;99.90;;;;;;5037097;28;20028;-59
2023/03/01 09:55:32;;;;;;;18.42;9.30;;;3.10;99.90;;;;;;5033446;28;20029;-58
2023/03/01 09:58:06;;;;;;;14.43;9.63;;;3.20;99.90;;;;;;5037275;28;20103;-59
2023/03/01 10:00:48;;;;;;;13.57;9.38;;;3.30;99.90;;;;;;5037972;28;20407;-57
2023/03/01 10:03:26;;;;;;;12.50;9.18;;;3.40;99.90;;;;;;5036553;28;20022;-58
2023/03/01 10:06:13;;;;;;;12.65;9.13;;;3.30;99.90;;;;;;5041299;28;20029;-57
2023/03/01 10:08:46;;;;;;;12.55;8.60;;;3.30;99.90;;;;;;5040601;28;20025;-56
2023/03/01 10:11:20;;;;;;;15.85;10.20;;;3.40;99.90;;;;;;5037691;28;20021;-57
2023/03/01 10:13:52;;;;;;;15.02;9.35;;;3.40;99.90;;;;;;5040084;28;20040;-56
2023/03/01 10:16:39;;;;;;;12.88;9.55;;;3.40;99.90;;;;;;5039862;28;20120;-56
2023/03/01 10:19:09;;;;;;;17.23;9.50;;;3.40;99.90;;;;;;5039508;28;20395;-58
2023/03/01 10:21:42;;;;;;;15.85;10.68;;;3.40;99.90;;;;;;5040485;28;20049;-57
2023/03/01 10:24:15;;;;;;;16.27;10.45;;;3.50;99.90;;;;;;5040930;28;20525;-58
2023/03/01 10:26:53;;;;;;;14.25;10.85;;;3.60;99.90;;;;;;5039865;28;20029;-58
2023/03/01 10:29:24;;;;;;;14.32;9.90;;;3.60;99.90;;;;;;5041273;28;20533;-56
2023/03/01 10:31:52;;;;;;;12.85;9.35;;;3.60;99.90;;;;;;5041640;28;20025;-57
2023/03/01 10:34:29;;;;;;;16.73;10.60;;;3.70;99.90;;;;;;5040674;28;20037;-59
2023/03/01 10:37:18;;;;;;;15.43;10.48;;;3.70;99.90;;;;;;5041510;28;20025;-59
2023/03/01 10:40:09;;;;;;;14.35;9.60;;;3.80;99.90;;;;;;5039783;28;20025;-59
2023/03/01 10:42:57;;;;;;;13.27;9.93;;;3.80;99.90;;;;;;5040961;28;20067;-59
2023/03/01 10:45:29;;;;;;;15.80;9.70;;;3.90;99.90;;;;;;5040752;28;20399;-56
2023/03/01 10:48:15;;;;;;;12.65;9.57;;;3.90;99.90;;;;;;5040618;28;20537;-59
2023/03/01 10:50:50;;;;;;;14.63;9.85;;;4.00;99.90;;;;;;5040734;28;20478;-58
2023/03/01 10:53:33;;;;;;;11.02;8.68;;;4.10;99.90;;;;;;5040591;28;20037;-57
2023/03/01 10:56:06;;;;;;;14.75;9.32;;;4.10;99.90;;;;;;5040347;28;20031;-58
2023/03/01 10:58:33;;;;;;;13.18;9.98;;;4.10;99.90;;;;;;5040769;28;20017;-59
2023/03/01 11:01:02;;;;;;;12.23;9.52;;;4.20;99.90;;;;;;5039580;28;20455;-59
2023/03/01 11:03:38;;;;;;;12.07;9.02;;;4.20;99.90;;;;;;5039425;28;20426;-59
2023/03/01 11:06:05;;;;;;;13.98;9.18;;;4.30;99.90;;;;;;5039541;28;20021;-57
2023/03/01 11:08:38;;;;;;;15.93;9.52;;;4.40;99.90;;;;;;5040053;28;20282;-58
2023/03/01 11:11:11;;;;;;;13.10;8.52;;;4.30;99.90;;;;;;5039309;28;20041;-57
2023/03/01 11:13:49;;;;;;;12.27;8.82;;;4.30;99.90;;;;;;5039150;28;20029;-59
2023/03/01 11:16:14;;;;;;;16.13;10.10;;;4.30;99.90;;;;;;5038470;28;20060;-59
2023/03/01 11:18:40;;;;;;;13.63;8.88;;;4.40;99.90;;;;;;5039890;28;20114;-59
2023/03/01 11:21:08;;;;;;;13.70;8.38;;;4.40;99.90;;;;;;5040170;28;20040;-56
2023/03/01 11:23:36;;;;;;;11.50;8.70;;;4.50;99.90;;;;;;5040325;28;20021;-60
2023/03/01 11:26:07;;;;;;;13.05;8.23;;;4.40;99.90;;;;;;5039023;28;20020;-60
2023/03/01 11:28:34;;;;;;;11.55;7.97;;;4.30;99.90;;;;;;5039939;28;20029;-57
2023/03/01 11:31:14;;;;;;;12.38;7.97;;;4.40;99.90;;;;;;5039515;28;20028;-58
2023/03/01 11:33:46;;;;;;;11.05;8.73;;;4.40;99.90;;;;;;5040318;28;20118;-58
2023/03/01 11:36:38;;;;;;;12.90;8.70;;;4.50;99.90;;;;;;5038951;28;20025;-60
2023/03/01 11:39:17;;;;;;;12.38;8.43;;;4.50;99.90;;;;;;5039448;28;20391;-57
2023/03/01 11:41:46;;;;;;;11.40;7.80;;;4.40;99.90;;;;;;5039142;28;20032;-57
2023/03/01 11:44:22;;;;;;;10.90;7.30;;;4.50;99.90;;;;;;5040260;28;20024;-59
2023/03/01 11:47:29;;;;;;;11.80;8.30;;;4.60;99.90;;;;;;5039013;28;20083;-59
2023/03/01 11:49:54;;;;;;;10.82;7.85;;;4.80;99.90;;;;;;5038931;28;20018;-58
2023/03/01 11:52:49;;;;;;;11.82;7.53;;;5.00;99.90;;;;;;5039902;28;20483;-57
2023/03/01 11:56:04;;;;;;;9.75;6.40;;;5.00;99.90;;;;;;5038988;28;20021;-58
2023/03/01 11:58:41;;;;;;;11.38;6.95;;;4.90;99.90;;;;;;5038647;28;20435;-58
2023/03/01 12:01:25;;;;;;;10.45;6.95;;;4.90;99.90;;;;;;5037790;28;20045;-57
2023/03/01 12:03:59;;;;;;;9.57;6.60;;;5.00;99.90;;;;;;5038675;28;20041;-58
2023/03/01 12:07:09;;;;;;;7.55;5.45;;;5.00;99.90;;;;;;5038128;28;20031;-59
2023/03/01 12:09:49;;;;;;;10.13;6.03;;;5.10;99.90;;;;;;4997805;28;20269;-59
2023/03/01 12:12:38;;;;;;;8.00;5.78;;;5.10;99.90;;;;;;4997862;28;20607;-59
2023/03/01 12:15:39;;;;;;;7.38;5.45;;;5.10;99.90;;;;;;5029231;28;20541;-58
2023/03/01 12:18:26;;;;;;;9.60;5.82;;;5.00;99.90;;;;;;5038481;28;20021;-56
2023/03/01 12:21:27;;;;;;;8.38;5.90;;;5.10;99.90;;;;;;5039119;28;20022;-57
2023/03/01 12:24:30;;;;;;;8.35;4.70;;;5.20;99.90;;;;;;5038947;28;20120;-57
2023/03/01 12:27:37;;;;;;;10.35;5.80;;;5.10;99.90;;;;;;5039164;28;20083;-59
2023/03/01 12:30:36;;;;;;;8.68;5.68;;;5.20;99.90;;;;;;5019000;28;20087;-59
2023/03/01 12:33:02;;;;;;;8.05;6.40;;;5.30;99.90;;;;;;5052829;28;20396;-57
2023/03/01 12:36:13;;;;;;;10.77;7.15;;;5.40;99.90;;;;;;5038361;28;20037;-56
2023/03/01 12:39:09;;;;;;;7.68;6.25;;;5.40;99.90;;;;;;5036735;28;20025;-57
2023/03/01 12:41:59;;;;;;;9.50;6.35;;;5.30;99.90;;;;;;5035370;28;20487;-55
2023/03/01 12:44:37;;;;;;;10.77;5.55;;;5.40;99.90;;;;;;5038216;28;20032;-56
2023/03/01 12:47:07;;;;;;;10.23;5.97;;;5.50;99.90;;;;;;5036591;28;20086;-56
2023/03/01 12:49:51;;;;;;;9.93;5.82;;;5.60;99.90;;;;;;5038741;28;20017;-59
2023/03/01 12:52:24;;;;;;;8.60;5.47;;;5.70;99.90;;;;;;5037727;28;20565;-59
2023/03/01 12:54:51;;;;;;;6.82;5.60;;;5.80;99.90;;;;;;5037798;28;20033;-57
2023/03/01 12:57:36;;;;;;;7.30;5.50;;;5.70;99.90;;;;;;5053007;28;20469;-59
2023/03/01 13:00:20;;;;;;;6.43;5.20;;;5.80;99.90;;;;;;5037883;28;20048;-58